sensor_id;sensor_type;location;lat;lon;timestamp;temperature;humidity
15656;DHT22;7928;43.614;1.456;2023-05-07T00:00:49;17.30;99.90
15656;DHT22;7928;43.614;1.456;2023-05-07T00:03:16;17.30;99.90
15656;DHT22;7928;43.614;1.456;2023-05-07T00:05:44;17.30;99.90
15656;DHT22;7928;43.614;1.456;2023-05-07T00:08:12;17.20;99.90
15656;DHT22;7928;43.614;1.456;2023-05-07T00:10:39;17.20;99.90
15656;DHT22;7928;43.614;1.456;2023-05-07T00:13:07;17.20;99.90
15656;DHT22;7928;43.614;1.456;2023-05-07T00:15:34;17.20;99.90
15656;DHT22;7928;43.614;1.456;2023-05-07T00:18:01;17.20;99.90
15656;DHT22;7928;43.614;1.456;2023-05-07T00:20:28;17.30;99.90
15656;DHT22;7928;43.614;1.456;2023-05-07T00:22:55;17.30;99.90
15656;DHT22;7928;43.614;1.456;2023-05-07T00:25:22;17.30;99.90
15656;DHT22;7928;43.614;1.456;2023-05-07T00:27:49;17.30;99.90
15656;DHT22;7928;43.614;1.456;2023-05-07T00:30:18;17.20;99.90
15656;DHT22;7928;43.614;1.456;2023-05-07T00:32:44;17.20;99.90
15656;DHT22;7928;43.614;1.456;2023-05-07T00:35:12;17.30;99.90
15656;DHT22;7928;43.614;1.456;2023-05-07T00:37:39;17.30;99.90
15656;DHT22;7928;43.614;1.456;2023-05-07T00:40:07;17.20;99.90
15656;DHT22;7928;43.614;1.456;2023-05-07T00:42:35;17.20;99.90
15656;DHT22;7928;43.614;1.456;2023-05-07T00:45:02;17.10;99.90
15656;DHT22;7928;43.614;1.456;2023-05-07T00:47:31;17.10;99.90
15656;DHT22;7928;43.614;1.456;2023-05-07T00:49:58;17.10;99.90
15656;DHT22;7928;43.614;1.456;2023-05-07T00:52:26;17.10;99.90
15656;DHT22;7928;43.614;1.456;2023-05-07T00:54:53;17.10;99.90
15656;DHT22;7928;43.614;1.456;2023-05-07T00:57:21;17.10;99.90
15656;DHT22;7928;43.614;1.456;2023-05-07T00:59:49;17.10;99.90
15656;DHT22;7928;43.614;1.456;2023-05-07T01:02:17;17.10;99.90
15656;DHT22;7928;43.614;1.456;2023-05-07T01:04:45;17.10;99.90
15656;DHT22;7928;43.614;1.456;2023-05-07T01:07:12;17.10;99.90
15656;DHT22;7928;43.614;1.456;2023-05-07T01:09:40;17.00;99.90
15656;DHT22;7928;43.614;1.456;2023-05-07T01:12:07;16.90;99.90
15656;DHT22;7928;43.614;1.456;2023-05-07T01:14:35;16.90;99.90
15656;DHT22;7928;43.614;1.456;2023-05-07T01:17:02;16.90;99.90
15656;DHT22;7928;43.614;1.456;2023-05-07T01:19:29;17.00;99.90
15656;DHT22;7928;43.614;1.456;2023-05-07T01:22:03;17.00;99.90
15656;DHT22;7928;43.614;1.456;2023-05-07T01:24:33;17.00;99.90
15656;DHT22;7928;43.614;1.456;2023-05-07T01:27:00;17.00;99.90
15656;DHT22;7928;43.614;1.456;2023-05-07T01:29:28;17.00;99.90
15656;DHT22;7928;43.614;1.456;2023-05-07T01:31:56;16.90;99.90
15656;DHT22;7928;43.614;1.456;2023-05-07T01:34:25;16.90;99.90
15656;DHT22;7928;43.614;1.456;2023-05-07T01:36:54;16.90;99.90
15656;DHT22;7928;43.614;1.456;2023-05-07T01:39:24;16.80;99.90
15656;DHT22;7928;43.614;1.456;2023-05-07T01:41:54;16.80;99.90
15656;DHT22;7928;43.614;1.456;2023-05-07T01:44:21;16.80;99.90
15656;DHT22;7928;43.614;1.456;2023-05-07T01:46:49;16.80;99.90
15656;DHT22;7928;43.614;1.456;2023-05-07T01:49:17;16.80;99.90
15656;DHT22;7928;43.614;1.456;2023-05-07T01:51:44;16.80;99.90
15656;DHT22;7928;43.614;1.456;2023-05-07T01:54:11;16.70;99.90
15656;DHT22;7928;43.614;1.456;2023-05-07T01:56:38;16.70;99.90
15656;DHT22;7928;43.614;1.456;2023-05-07T01:59:07;16.70;99.90
15656;DHT22;7928;43.614;1.456;2023-05-07T02:01:34;16.80;99.90
15656;DHT22;7928;43.614;1.456;2023-05-07T02:04:01;16.80;99.90
15656;DHT22;7928;43.614;1.456;2023-05-07T02:06:28;16.80;99.90
15656;DHT22;7928;43.614;1.456;2023-05-07T02:08:56;16.80;99.90
15656;DHT22;7928;43.614;1.456;2023-05-07T02:11:23;16.80;99.90
15656;DHT22;7928;43.614;1.456;2023-05-07T02:13:50;16.80;99.90
15656;DHT22;7928;43.614;1.456;2023-05-07T02:16:19;16.70;99.90
15656;DHT22;7928;43.614;1.456;2023-05-07T02:18:47;16.70;99.90
15656;DHT22;7928;43.614;1.456;2023-05-07T02:21:14;16.80;99.90
15656;DHT22;7928;43.614;1.456;2023-05-07T02:23:41;16.80;99.90
15656;DHT22;7928;43.614;1.456;2023-05-07T02:26:08;16.80;99.90
15656;DHT22;7928;43.614;1.456;2023-05-07T02:28:35;16.70;99.90
15656;DHT22;7928;43.614;1.456;2023-05-07T02:31:02;16.70;99.90
15656;DHT22;7928;43.614;1.456;2023-05-07T02:33:31;16.70;99.90
15656;DHT22;7928;43.614;1.456;2023-05-07T02:36:05;16.60;99.90
15656;DHT22;7928;43.614;1.456;2023-05-07T02:38:32;16.60;99.90
15656;DHT22;7928;43.614;1.456;2023-05-07T02:40:59;16.60;99.90
15656;DHT22;7928;43.614;1.456;2023-05-07T02:43:26;16.70;99.90
15656;DHT22;7928;43.614;1.456;2023-05-07T02:46:00;16.70;99.90
15656;DHT22;7928;43.614;1.456;2023-05-07T02:48:28;16.70;99.90
15656;DHT22;7928;43.614;1.456;2023-05-07T02:50:56;16.70;99.90
15656;DHT22;7928;43.614;1.456;2023-05-07T02:53:23;16.80;99.90
15656;DHT22;7928;43.614;1.456;2023-05-07T02:55:52;16.80;99.90
15656;DHT22;7928;43.614;1.456;2023-05-07T02:58:19;16.90;99.90
15656;DHT22;7928;43.614;1.456;2023-05-07T03:00:46;16.90;99.90
15656;DHT22;7928;43.614;1.456;2023-05-07T03:03:13;16.90;99.90
15656;DHT22;7928;43.614;1.456;2023-05-07T03:05:40;16.90;99.90
15656;DHT22;7928;43.614;1.456;2023-05-07T03:08:09;16.70;99.90
15656;DHT22;7928;43.614;1.456;2023-05-07T03:10:37;16.70;99.90
15656;DHT22;7928;43.614;1.456;2023-05-07T03:13:04;16.70;99.90
15656;DHT22;7928;43.614;1.456;2023-05-07T03:15:31;16.60;99.90
15656;DHT22;7928;43.614;1.456;2023-05-07T03:17:58;16.60;99.90
15656;DHT22;7928;43.614;1.456;2023-05-07T03:20:25;16.60;99.90
15656;DHT22;7928;43.614;1.456;2023-05-07T03:22:52;16.60;99.90
15656;DHT22;7928;43.614;1.456;2023-05-07T03:25:20;16.70;99.90
15656;DHT22;7928;43.614;1.456;2023-05-07T03:27:47;16.70;99.90
15656;DHT22;7928;43.614;1.456;2023-05-07T03:30:14;16.60;99.90
15656;DHT22;7928;43.614;1.456;2023-05-07T03:32:41;16.50;99.90
15656;DHT22;7928;43.614;1.456;2023-05-07T03:35:08;16.50;99.90
15656;DHT22;7928;43.614;1.456;2023-05-07T03:37:35;16.60;99.90
15656;DHT22;7928;43.614;1.456;2023-05-07T03:40:03;16.50;99.90
15656;DHT22;7928;43.614;1.456;2023-05-07T03:42:32;16.50;99.90
15656;DHT22;7928;43.614;1.456;2023-05-07T03:44:59;16.50;99.90
15656;DHT22;7928;43.614;1.456;2023-05-07T03:47:26;16.60;99.90
15656;DHT22;7928;43.614;1.456;2023-05-07T03:49:53;16.60;99.90
15656;DHT22;7928;43.614;1.456;2023-05-07T03:52:20;16.60;99.90
15656;DHT22;7928;43.614;1.456;2023-05-07T03:54:51;16.70;99.90
15656;DHT22;7928;43.614;1.456;2023-05-07T03:57:18;16.60;99.90
15656;DHT22;7928;43.614;1.456;2023-05-07T03:59:47;16.70;99.90
15656;DHT22;7928;43.614;1.456;2023-05-07T04:02:14;16.60;99.90
15656;DHT22;7928;43.614;1.456;2023-05-07T04:04:41;16.60;99.90
15656;DHT22;7928;43.614;1.456;2023-05-07T04:07:08;16.60;99.90
15656;DHT22;7928;43.614;1.456;2023-05-07T04:09:35;16.60;99.90
15656;DHT22;7928;43.614;1.456;2023-05-07T04:12:02;16.50;99.90
15656;DHT22;7928;43.614;1.456;2023-05-07T04:14:29;16.50;99.90
15656;DHT22;7928;43.614;1.456;2023-05-07T04:16:59;16.50;99.90
15656;DHT22;7928;43.614;1.456;2023-05-07T04:19:26;16.50;99.90
15656;DHT22;7928;43.614;1.456;2023-05-07T04:21:53;16.50;99.90
15656;DHT22;7928;43.614;1.456;2023-05-07T04:24:20;16.40;99.90
15656;DHT22;7928;43.614;1.456;2023-05-07T04:26:47;16.40;99.90
15656;DHT22;7928;43.614;1.456;2023-05-07T04:29:14;16.50;99.90
15656;DHT22;7928;43.614;1.456;2023-05-07T04:31:41;16.40;99.90
15656;DHT22;7928;43.614;1.456;2023-05-07T04:34:11;16.40;99.90
15656;DHT22;7928;43.614;1.456;2023-05-07T04:36:38;16.30;99.90
15656;DHT22;7928;43.614;1.456;2023-05-07T04:39:05;16.40;99.90
15656;DHT22;7928;43.614;1.456;2023-05-07T04:41:32;16.40;99.90
15656;DHT22;7928;43.614;1.456;2023-05-07T04:43:59;16.40;99.90
15656;DHT22;7928;43.614;1.456;2023-05-07T04:46:27;16.30;99.90
15656;DHT22;7928;43.614;1.456;2023-05-07T04:48:54;16.20;99.90
15656;DHT22;7928;43.614;1.456;2023-05-07T04:51:22;16.30;99.90
15656;DHT22;7928;43.614;1.456;2023-05-07T04:53:49;16.20;99.90
15656;DHT22;7928;43.614;1.456;2023-05-07T04:56:16;16.30;99.90
15656;DHT22;7928;43.614;1.456;2023-05-07T04:58:43;16.30;99.90
15656;DHT22;7928;43.614;1.456;2023-05-07T05:01:10;16.40;99.90
15656;DHT22;7928;43.614;1.456;2023-05-07T05:03:37;16.40;99.90
15656;DHT22;7928;43.614;1.456;2023-05-07T05:06:05;16.40;99.90
15656;DHT22;7928;43.614;1.456;2023-05-07T05:08:33;16.40;99.90
15656;DHT22;7928;43.614;1.456;2023-05-07T05:11:01;16.30;99.90
15656;DHT22;7928;43.614;1.456;2023-05-07T05:13:28;16.30;99.90
15656;DHT22;7928;43.614;1.456;2023-05-07T05:15:55;16.30;99.90
15656;DHT22;7928;43.614;1.456;2023-05-07T05:18:22;16.30;99.90
15656;DHT22;7928;43.614;1.456;2023-05-07T05:20:51;16.30;99.90
15656;DHT22;7928;43.614;1.456;2023-05-07T05:23:18;16.30;99.90
15656;DHT22;7928;43.614;1.456;2023-05-07T05:25:47;16.30;99.90
15656;DHT22;7928;43.614;1.456;2023-05-07T05:28:14;16.20;99.90
15656;DHT22;7928;43.614;1.456;2023-05-07T05:30:41;16.30;99.90
15656;DHT22;7928;43.614;1.456;2023-05-07T05:33:07;16.30;99.90
15656;DHT22;7928;43.614;1.456;2023-05-07T05:35:34;16.30;99.90
15656;DHT22;7928;43.614;1.456;2023-05-07T05:38:02;16.40;99.90
15656;DHT22;7928;43.614;1.456;2023-05-07T05:40:29;16.40;99.90
15656;DHT22;7928;43.614;1.456;2023-05-07T05:42:57;16.40;99.90
15656;DHT22;7928;43.614;1.456;2023-05-07T05:45:25;16.40;99.90
15656;DHT22;7928;43.614;1.456;2023-05-07T05:47:52;16.50;99.90
15656;DHT22;7928;43.614;1.456;2023-05-07T05:50:19;16.50;99.90
15656;DHT22;7928;43.614;1.456;2023-05-07T05:52:46;16.50;99.90
15656;DHT22;7928;43.614;1.456;2023-05-07T05:55:13;16.40;99.90
15656;DHT22;7928;43.614;1.456;2023-05-07T05:57:40;16.50;99.90
15656;DHT22;7928;43.614;1.456;2023-05-07T06:00:10;16.50;99.90
15656;DHT22;7928;43.614;1.456;2023-05-07T06:02:37;16.40;99.90
15656;DHT22;7928;43.614;1.456;2023-05-07T06:05:05;16.50;99.90
15656;DHT22;7928;43.614;1.456;2023-05-07T06:07:32;16.60;99.90
15656;DHT22;7928;43.614;1.456;2023-05-07T06:10:00;16.60;99.90
15656;DHT22;7928;43.614;1.456;2023-05-07T06:12:27;16.60;99.90
15656;DHT22;7928;43.614;1.456;2023-05-07T06:14:54;16.60;99.90
15656;DHT22;7928;43.614;1.456;2023-05-07T06:17:22;16.60;99.90
15656;DHT22;7928;43.614;1.456;2023-05-07T06:19:49;16.60;99.90
15656;DHT22;7928;43.614;1.456;2023-05-07T06:22:16;16.50;99.90
15656;DHT22;7928;43.614;1.456;2023-05-07T06:24:43;16.50;99.90
15656;DHT22;7928;43.614;1.456;2023-05-07T06:27:10;16.50;99.90
15656;DHT22;7928;43.614;1.456;2023-05-07T06:29:37;16.70;99.90
15656;DHT22;7928;43.614;1.456;2023-05-07T06:32:07;16.70;99.90
15656;DHT22;7928;43.614;1.456;2023-05-07T06:34:35;16.70;99.90
15656;DHT22;7928;43.614;1.456;2023-05-07T06:37:03;16.70;99.90
15656;DHT22;7928;43.614;1.456;2023-05-07T06:39:30;16.80;99.90
15656;DHT22;7928;43.614;1.456;2023-05-07T06:41:57;16.70;99.90
15656;DHT22;7928;43.614;1.456;2023-05-07T06:44:24;16.70;99.90
15656;DHT22;7928;43.614;1.456;2023-05-07T06:46:51;16.70;99.90
15656;DHT22;7928;43.614;1.456;2023-05-07T06:49:18;16.70;99.90
15656;DHT22;7928;43.614;1.456;2023-05-07T06:51:46;16.70;99.90
15656;DHT22;7928;43.614;1.456;2023-05-07T06:54:13;16.70;99.90
15656;DHT22;7928;43.614;1.456;2023-05-07T06:56:40;16.80;99.90
15656;DHT22;7928;43.614;1.456;2023-05-07T06:59:08;16.80;99.90
15656;DHT22;7928;43.614;1.456;2023-05-07T07:01:35;16.90;99.90
15656;DHT22;7928;43.614;1.456;2023-05-07T07:04:02;16.90;99.90
15656;DHT22;7928;43.614;1.456;2023-05-07T07:06:29;17.10;99.90
15656;DHT22;7928;43.614;1.456;2023-05-07T07:08:58;17.10;99.90
15656;DHT22;7928;43.614;1.456;2023-05-07T07:11:26;17.10;99.90
15656;DHT22;7928;43.614;1.456;2023-05-07T07:13:53;17.10;99.90
15656;DHT22;7928;43.614;1.456;2023-05-07T07:16:20;17.00;99.90
15656;DHT22;7928;43.614;1.456;2023-05-07T07:18:47;17.10;99.90
15656;DHT22;7928;43.614;1.456;2023-05-07T07:21:14;17.10;99.90
15656;DHT22;7928;43.614;1.456;2023-05-07T07:23:41;17.10;99.90
15656;DHT22;7928;43.614;1.456;2023-05-07T07:26:09;17.20;99.90
15656;DHT22;7928;43.614;1.456;2023-05-07T07:28:42;17.20;99.90
15656;DHT22;7928;43.614;1.456;2023-05-07T07:31:09;17.30;99.90
15656;DHT22;7928;43.614;1.456;2023-05-07T07:33:36;17.50;99.90
15656;DHT22;7928;43.614;1.456;2023-05-07T07:36:04;17.60;99.90
15656;DHT22;7928;43.614;1.456;2023-05-07T07:38:32;17.60;99.90
15656;DHT22;7928;43.614;1.456;2023-05-07T07:41:00;17.70;99.90
15656;DHT22;7928;43.614;1.456;2023-05-07T07:43:28;17.70;99.90
15656;DHT22;7928;43.614;1.456;2023-05-07T07:45:55;17.90;99.90
15656;DHT22;7928;43.614;1.456;2023-05-07T07:48:22;17.90;99.90
15656;DHT22;7928;43.614;1.456;2023-05-07T07:50:50;18.00;99.90
15656;DHT22;7928;43.614;1.456;2023-05-07T07:53:17;18.10;99.90
15656;DHT22;7928;43.614;1.456;2023-05-07T07:55:44;18.20;99.90
15656;DHT22;7928;43.614;1.456;2023-05-07T07:58:11;18.30;99.90
15656;DHT22;7928;43.614;1.456;2023-05-07T08:00:39;18.40;99.90
15656;DHT22;7928;43.614;1.456;2023-05-07T08:03:09;18.60;99.90
15656;DHT22;7928;43.614;1.456;2023-05-07T08:05:36;18.70;99.90
15656;DHT22;7928;43.614;1.456;2023-05-07T08:08:04;18.70;99.90
15656;DHT22;7928;43.614;1.456;2023-05-07T08:10:31;18.70;99.90
15656;DHT22;7928;43.614;1.456;2023-05-07T08:13:00;18.70;99.90
15656;DHT22;7928;43.614;1.456;2023-05-07T08:15:29;18.90;99.90
15656;DHT22;7928;43.614;1.456;2023-05-07T08:17:57;19.00;99.90
15656;DHT22;7928;43.614;1.456;2023-05-07T08:20:25;19.00;99.90
15656;DHT22;7928;43.614;1.456;2023-05-07T08:22:52;18.90;99.90
15656;DHT22;7928;43.614;1.456;2023-05-07T08:25:19;18.80;99.90
15656;DHT22;7928;43.614;1.456;2023-05-07T08:27:46;18.80;99.90
15656;DHT22;7928;43.614;1.456;2023-05-07T08:30:14;18.90;99.90
15656;DHT22;7928;43.614;1.456;2023-05-07T08:32:41;19.10;99.90
15656;DHT22;7928;43.614;1.456;2023-05-07T08:35:10;19.10;99.90
15656;DHT22;7928;43.614;1.456;2023-05-07T08:37:37;19.10;99.90
15656;DHT22;7928;43.614;1.456;2023-05-07T08:40:05;19.10;99.90
15656;DHT22;7928;43.614;1.456;2023-05-07T08:42:35;19.10;99.90
15656;DHT22;7928;43.614;1.456;2023-05-07T08:45:04;19.20;99.90
15656;DHT22;7928;43.614;1.456;2023-05-07T08:47:40;19.40;99.90
15656;DHT22;7928;43.614;1.456;2023-05-07T08:50:10;19.60;99.90
15656;DHT22;7928;43.614;1.456;2023-05-07T08:52:39;19.50;99.90
15656;DHT22;7928;43.614;1.456;2023-05-07T08:55:07;19.60;99.90
15656;DHT22;7928;43.614;1.456;2023-05-07T08:57:34;19.80;99.90
15656;DHT22;7928;43.614;1.456;2023-05-07T09:00:02;19.70;99.90
15656;DHT22;7928;43.614;1.456;2023-05-07T09:02:29;19.50;99.90
15656;DHT22;7928;43.614;1.456;2023-05-07T09:04:56;19.30;99.90
15656;DHT22;7928;43.614;1.456;2023-05-07T09:07:25;19.30;99.90
15656;DHT22;7928;43.614;1.456;2023-05-07T09:09:52;19.40;99.90
15656;DHT22;7928;43.614;1.456;2023-05-07T09:12:21;19.40;99.90
15656;DHT22;7928;43.614;1.456;2023-05-07T09:14:48;19.40;99.90
15656;DHT22;7928;43.614;1.456;2023-05-07T09:17:15;19.50;99.90
15656;DHT22;7928;43.614;1.456;2023-05-07T09:19:43;19.60;99.90
15656;DHT22;7928;43.614;1.456;2023-05-07T09:22:11;19.90;99.90
15656;DHT22;7928;43.614;1.456;2023-05-07T09:24:39;20.20;99.90
15656;DHT22;7928;43.614;1.456;2023-05-07T09:27:06;20.50;99.90
15656;DHT22;7928;43.614;1.456;2023-05-07T09:29:35;20.40;99.90
15656;DHT22;7928;43.614;1.456;2023-05-07T09:32:03;20.30;99.90
15656;DHT22;7928;43.614;1.456;2023-05-07T09:34:30;20.40;99.90
15656;DHT22;7928;43.614;1.456;2023-05-07T09:36:58;20.50;99.90
15656;DHT22;7928;43.614;1.456;2023-05-07T09:39:26;20.60;99.90
15656;DHT22;7928;43.614;1.456;2023-05-07T09:41:54;20.80;99.90
15656;DHT22;7928;43.614;1.456;2023-05-07T09:44:22;20.60;99.90
15656;DHT22;7928;43.614;1.456;2023-05-07T09:46:53;20.30;99.90
15656;DHT22;7928;43.614;1.456;2023-05-07T09:49:22;20.10;99.90
15656;DHT22;7928;43.614;1.456;2023-05-07T09:51:50;20.00;99.90
15656;DHT22;7928;43.614;1.456;2023-05-07T09:54:17;19.90;99.90
15656;DHT22;7928;43.614;1.456;2023-05-07T09:56:45;19.80;99.90
15656;DHT22;7928;43.614;1.456;2023-05-07T09:59:15;19.60;99.90
15656;DHT22;7928;43.614;1.456;2023-05-07T10:01:43;19.60;99.90
15656;DHT22;7928;43.614;1.456;2023-05-07T10:04:11;19.50;99.90
15656;DHT22;7928;43.614;1.456;2023-05-07T10:06:39;19.50;99.90
15656;DHT22;7928;43.614;1.456;2023-05-07T10:09:07;19.30;99.90
15656;DHT22;7928;43.614;1.456;2023-05-07T10:11:37;19.00;99.90
15656;DHT22;7928;43.614;1.456;2023-05-07T10:14:05;18.90;99.90
15656;DHT22;7928;43.614;1.456;2023-05-07T10:16:35;18.90;99.90
15656;DHT22;7928;43.614;1.456;2023-05-07T10:19:03;18.90;99.90
15656;DHT22;7928;43.614;1.456;2023-05-07T10:21:30;19.00;99.90
15656;DHT22;7928;43.614;1.456;2023-05-07T10:23:59;19.10;99.90
15656;DHT22;7928;43.614;1.456;2023-05-07T10:26:29;19.40;99.90
15656;DHT22;7928;43.614;1.456;2023-05-07T10:29:00;19.50;99.90
15656;DHT22;7928;43.614;1.456;2023-05-07T10:31:52;19.70;99.90
15656;DHT22;7928;43.614;1.456;2023-05-07T10:34:23;19.60;99.90
15656;DHT22;7928;43.614;1.456;2023-05-07T10:36:51;20.30;99.90
15656;DHT22;7928;43.614;1.456;2023-05-07T10:39:20;20.80;99.90
15656;DHT22;7928;43.614;1.456;2023-05-07T10:41:47;20.80;99.90
15656;DHT22;7928;43.614;1.456;2023-05-07T10:44:25;20.70;99.90
15656;DHT22;7928;43.614;1.456;2023-05-07T10:47:06;20.90;99.90
15656;DHT22;7928;43.614;1.456;2023-05-07T10:49:35;20.70;99.90
15656;DHT22;7928;43.614;1.456;2023-05-07T10:52:11;20.90;99.90
15656;DHT22;7928;43.614;1.456;2023-05-07T10:54:39;21.20;99.90
15656;DHT22;7928;43.614;1.456;2023-05-07T10:57:33;21.50;99.90
15656;DHT22;7928;43.614;1.456;2023-05-07T11:00:02;22.40;99.90
15656;DHT22;7928;43.614;1.456;2023-05-07T11:03:08;22.80;99.90
15656;DHT22;7928;43.614;1.456;2023-05-07T11:05:35;23.40;99.90
15656;DHT22;7928;43.614;1.456;2023-05-07T11:08:03;23.50;99.90
15656;DHT22;7928;43.614;1.456;2023-05-07T11:10:49;23.30;99.90
15656;DHT22;7928;43.614;1.456;2023-05-07T11:13:17;23.20;99.90
15656;DHT22;7928;43.614;1.456;2023-05-07T11:15:45;23.60;99.90
15656;DHT22;7928;43.614;1.456;2023-05-07T11:18:15;23.90;99.90
15656;DHT22;7928;43.614;1.456;2023-05-07T11:20:50;23.80;99.90
15656;DHT22;7928;43.614;1.456;2023-05-07T11:26:29;23.00;99.90
15656;DHT22;7928;43.614;1.456;2023-05-07T11:28:57;24.50;99.90
15656;DHT22;7928;43.614;1.456;2023-05-07T11:31:27;25.40;99.90
15656;DHT22;7928;43.614;1.456;2023-05-07T11:33:57;26.30;99.90
15656;DHT22;7928;43.614;1.456;2023-05-07T11:36:24;26.20;99.90
15656;DHT22;7928;43.614;1.456;2023-05-07T11:38:52;25.30;99.90
15656;DHT22;7928;43.614;1.456;2023-05-07T11:41:19;25.30;99.90
15656;DHT22;7928;43.614;1.456;2023-05-07T11:43:54;24.70;99.90
15656;DHT22;7928;43.614;1.456;2023-05-07T11:46:22;24.70;99.90
15656;DHT22;7928;43.614;1.456;2023-05-07T11:48:49;25.10;99.90
15656;DHT22;7928;43.614;1.456;2023-05-07T11:51:22;25.90;99.90
15656;DHT22;7928;43.614;1.456;2023-05-07T11:53:49;25.20;99.90
15656;DHT22;7928;43.614;1.456;2023-05-07T11:56:17;25.10;99.90
15656;DHT22;7928;43.614;1.456;2023-05-07T11:58:45;25.00;99.90
15656;DHT22;7928;43.614;1.456;2023-05-07T12:01:13;26.20;99.90
15656;DHT22;7928;43.614;1.456;2023-05-07T12:03:42;27.50;99.90
15656;DHT22;7928;43.614;1.456;2023-05-07T12:06:11;28.70;99.90
15656;DHT22;7928;43.614;1.456;2023-05-07T12:08:41;28.60;99.90
15656;DHT22;7928;43.614;1.456;2023-05-07T12:11:09;29.10;99.90
15656;DHT22;7928;43.614;1.456;2023-05-07T12:13:37;28.80;99.90
15656;DHT22;7928;43.614;1.456;2023-05-07T12:16:05;29.00;99.90
15656;DHT22;7928;43.614;1.456;2023-05-07T12:18:36;29.50;99.90
15656;DHT22;7928;43.614;1.456;2023-05-07T12:21:05;29.30;99.90
15656;DHT22;7928;43.614;1.456;2023-05-07T12:23:32;29.20;99.90
15656;DHT22;7928;43.614;1.456;2023-05-07T12:26:01;28.30;99.90
15656;DHT22;7928;43.614;1.456;2023-05-07T12:28:29;27.60;99.90
15656;DHT22;7928;43.614;1.456;2023-05-07T12:30:57;27.60;99.90
15656;DHT22;7928;43.614;1.456;2023-05-07T12:33:25;28.90;99.90
15656;DHT22;7928;43.614;1.456;2023-05-07T12:35:55;29.00;99.90
15656;DHT22;7928;43.614;1.456;2023-05-07T12:38:22;29.70;99.90
15656;DHT22;7928;43.614;1.456;2023-05-07T12:40:50;29.70;99.90
15656;DHT22;7928;43.614;1.456;2023-05-07T12:43:20;28.60;99.90
15656;DHT22;7928;43.614;1.456;2023-05-07T12:45:49;27.80;99.90
15656;DHT22;7928;43.614;1.456;2023-05-07T12:48:17;27.10;99.90
15656;DHT22;7928;43.614;1.456;2023-05-07T12:50:44;26.60;99.90
15656;DHT22;7928;43.614;1.456;2023-05-07T12:53:11;27.20;99.90
15656;DHT22;7928;43.614;1.456;2023-05-07T12:55:43;26.90;99.90
15656;DHT22;7928;43.614;1.456;2023-05-07T12:58:19;26.80;99.90
15656;DHT22;7928;43.614;1.456;2023-05-07T13:00:48;27.50;99.90
15656;DHT22;7928;43.614;1.456;2023-05-07T13:03:23;29.20;99.90
15656;DHT22;7928;43.614;1.456;2023-05-07T13:05:50;28.70;99.90
15656;DHT22;7928;43.614;1.456;2023-05-07T13:08:25;29.10;99.90
15656;DHT22;7928;43.614;1.456;2023-05-07T13:10:52;29.60;99.90
15656;DHT22;7928;43.614;1.456;2023-05-07T13:13:21;29.80;99.90
15656;DHT22;7928;43.614;1.456;2023-05-07T13:15:48;30.10;99.90
15656;DHT22;7928;43.614;1.456;2023-05-07T13:18:15;30.90;99.90
15656;DHT22;7928;43.614;1.456;2023-05-07T13:20:42;30.40;99.90
15656;DHT22;7928;43.614;1.456;2023-05-07T13:23:09;30.40;99.90
15656;DHT22;7928;43.614;1.456;2023-05-07T13:25:36;31.00;99.90
15656;DHT22;7928;43.614;1.456;2023-05-07T13:28:04;30.80;99.90
15656;DHT22;7928;43.614;1.456;2023-05-07T13:30:32;29.80;99.90
15656;DHT22;7928;43.614;1.456;2023-05-07T13:32:59;28.80;99.90
15656;DHT22;7928;43.614;1.456;2023-05-07T13:35:26;28.40;99.90
15656;DHT22;7928;43.614;1.456;2023-05-07T13:37:53;28.00;99.90
15656;DHT22;7928;43.614;1.456;2023-05-07T13:40:21;27.30;99.90
15656;DHT22;7928;43.614;1.456;2023-05-07T13:42:48;26.90;99.90
15656;DHT22;7928;43.614;1.456;2023-05-07T13:45:16;26.90;99.90
15656;DHT22;7928;43.614;1.456;2023-05-07T13:47:45;26.80;99.90
15656;DHT22;7928;43.614;1.456;2023-05-07T13:50:12;26.40;99.90
15656;DHT22;7928;43.614;1.456;2023-05-07T13:52:41;26.10;99.90
15656;DHT22;7928;43.614;1.456;2023-05-07T13:55:11;25.90;99.90
15656;DHT22;7928;43.614;1.456;2023-05-07T13:57:38;25.50;99.90
15656;DHT22;7928;43.614;1.456;2023-05-07T14:00:06;25.30;99.90
15656;DHT22;7928;43.614;1.456;2023-05-07T14:02:34;25.10;99.90
15656;DHT22;7928;43.614;1.456;2023-05-07T14:05:02;24.80;99.90
15656;DHT22;7928;43.614;1.456;2023-05-07T14:07:29;25.30;99.90
15656;DHT22;7928;43.614;1.456;2023-05-07T14:09:56;25.90;99.90
15656;DHT22;7928;43.614;1.456;2023-05-07T14:12:24;26.00;99.90
15656;DHT22;7928;43.614;1.456;2023-05-07T14:14:51;26.60;99.90
15656;DHT22;7928;43.614;1.456;2023-05-07T14:17:18;28.10;99.90
15656;DHT22;7928;43.614;1.456;2023-05-07T14:19:45;29.50;99.90
15656;DHT22;7928;43.614;1.456;2023-05-07T14:22:14;29.60;99.90
15656;DHT22;7928;43.614;1.456;2023-05-07T14:24:41;29.40;99.90
15656;DHT22;7928;43.614;1.456;2023-05-07T14:27:08;29.70;99.90
15656;DHT22;7928;43.614;1.456;2023-05-07T14:29:35;30.00;99.90
15656;DHT22;7928;43.614;1.456;2023-05-07T14:32:02;30.20;99.90
15656;DHT22;7928;43.614;1.456;2023-05-07T14:34:30;30.30;99.90
15656;DHT22;7928;43.614;1.456;2023-05-07T14:36:57;31.00;99.90
15656;DHT22;7928;43.614;1.456;2023-05-07T14:39:26;31.00;99.90
15656;DHT22;7928;43.614;1.456;2023-05-07T14:41:53;30.20;99.90
15656;DHT22;7928;43.614;1.456;2023-05-07T14:44:21;29.80;99.90
15656;DHT22;7928;43.614;1.456;2023-05-07T14:46:48;28.80;99.90
15656;DHT22;7928;43.614;1.456;2023-05-07T14:49:15;28.10;99.90
15656;DHT22;7928;43.614;1.456;2023-05-07T14:51:44;27.90;99.90
15656;DHT22;7928;43.614;1.456;2023-05-07T14:54:11;27.50;99.90
15656;DHT22;7928;43.614;1.456;2023-05-07T14:56:40;27.00;99.90
15656;DHT22;7928;43.614;1.456;2023-05-07T14:59:08;26.50;99.90
15656;DHT22;7928;43.614;1.456;2023-05-07T15:01:36;26.30;99.90
15656;DHT22;7928;43.614;1.456;2023-05-07T15:04:03;26.10;99.90
15656;DHT22;7928;43.614;1.456;2023-05-07T15:06:30;25.90;1.00
15656;DHT22;7928;43.614;1.456;2023-05-07T15:08:58;25.80;1.00
15656;DHT22;7928;43.614;1.456;2023-05-07T15:11:25;26.00;1.00
15656;DHT22;7928;43.614;1.456;2023-05-07T15:13:53;27.30;1.00
15656;DHT22;7928;43.614;1.456;2023-05-07T15:16:20;27.80;99.90
15656;DHT22;7928;43.614;1.456;2023-05-07T15:18:48;28.80;99.90
15656;DHT22;7928;43.614;1.456;2023-05-07T15:21:15;28.60;99.90
15656;DHT22;7928;43.614;1.456;2023-05-07T15:23:42;27.90;99.90
15656;DHT22;7928;43.614;1.456;2023-05-07T15:26:10;27.10;99.90
15656;DHT22;7928;43.614;1.456;2023-05-07T15:28:37;26.20;99.90
15656;DHT22;7928;43.614;1.456;2023-05-07T15:31:06;25.90;99.90
15656;DHT22;7928;43.614;1.456;2023-05-07T15:33:33;25.50;99.90
15656;DHT22;7928;43.614;1.456;2023-05-07T15:36:00;25.70;99.90
15656;DHT22;7928;43.614;1.456;2023-05-07T15:38:28;25.50;99.90
15656;DHT22;7928;43.614;1.456;2023-05-07T15:40:55;25.20;99.90
15656;DHT22;7928;43.614;1.456;2023-05-07T15:43:22;24.70;1.00
15656;DHT22;7928;43.614;1.456;2023-05-07T15:45:50;24.40;1.00
15656;DHT22;7928;43.614;1.456;2023-05-07T15:48:19;23.90;1.00
15656;DHT22;7928;43.614;1.456;2023-05-07T15:50:46;23.60;1.00
15656;DHT22;7928;43.614;1.456;2023-05-07T15:53:13;23.40;1.00
15656;DHT22;7928;43.614;1.456;2023-05-07T15:55:41;23.20;1.00